FCO weather

Leonardo da Vinci–Fiumicino Airport
Rome, Lazio, Italy

Public forecast

Using degrees Celsius for public forecast. Weather courtesy of forecast.io.

METAR (pilot weather report)

Retrieved 2018/10/17 19:50 UTC (12 minutes ago):

LIRF 171950Z 06004KT CAVOK 19/17 Q1015 NOSIG

TAF (pilot weather forecast)

Retrieved 2018/10/17 18:25 UTC (2 hours ago):

TAF LIRF 171700Z 1718/1824 15012KT 9999 SCT025 BECMG 1721/1723 09010KT BECMG 1809/1811 24008KT BECMG 1818/1820 05008KT